Patuxent River Naval Air Station/Trapnell Field Aiport
KNHK : now visible

Airfield :











YOU CAN JOIN US ON...

 
LOGIN :

Register | Disclaimer

   EN    FR    IT 

 









Legend :    VFR   Marginal VFR   IFR   Intensive IFR   Very Intensive IFR
Visi :
Ceiling :
>= 8 km
>= 3000ft
5 to 8 km
1000 to 3000 ft
1500m to 5 km
500 to 1000 ft
800 to 1500m
200 to 500 ft
< 800m
< 200 ft
Symbols :   Thunderstorms  Fog  Heavy snow  Heavy precipitations  Wind > 20 kt






- Airport Elevation : 39 ft


KNHK - Patuxent River Naval Air Station/Trapnell Field Aiport

CURRENT METAR :
  • 100452Z AUTO 31017G28KT 10SM FEW100 10/M01 A2957 RMK AO2 PK WND 33039/0354 SLP014 T01001006 402610100 $

EXPIRED METARs :
  • 100352Z AUTO 32027G41KT 10SM SCT120 11/01 A2954 RMK AO2 PK WND 32043/0334 PRESRR SLP004 T01110011 $
  • 100252Z 32028G34KT 10SM CLR 12/01 A2951 RMK AO2 PK WND 33034/0252 CIG 110 RY24 SLP994 T01170006 51024 $

TAF TAF KNHK
Valid from the 09 at 23:00 until the 10 at 23:00 UTC


0923/1023 32025G30KT 9999 FEW040 FEW100 560009 560907 541602 541809 542709 543609 QNH2944INS
TEMPO 1000/1006 30015G25KT
BECMG 1004/1006 29018G30KT 9999 SKC 560009 560907 541602 541809 542709 543609 QNH2954INS
BECMG 1010/1012 28020G35KT 9999 FEW055 SCT080 560009 560907 541602 541809 542709 543609 QNH2960INS AUTOMATED SENSOR METWATCH 1003 TIL 1008 T06/1009Z T14/1021Z FN00067



MET'MAP, your aeronautical weather chart ! - Copyright ORBIFLY December 2007 - Disclaimer

ORBIFLY MET'MAP TEAM :

Programming & Development : Alexandra Zaïnal
Concept & original design : Baudouin d'Aumeries
Assistance for programming : Marc-Olivier Méhu
Technical & hardware support : Manuel Goepfert

Contact : metmap@orbifly.com




SOURCES & CREDITS :

   NOAA       Earth
Advisory